createdAt,value
2023-01-09T00:01:58.760Z,1.55
2023-01-09T00:04:29.359Z,1.75
2023-01-09T00:07:00.651Z,1.95
2023-01-09T00:09:31.624Z,2.00
2023-01-09T00:12:05.436Z,1.83
2023-01-09T00:14:35.873Z,1.90
2023-01-09T00:17:07.327Z,1.88
2023-01-09T00:19:37.982Z,2.13
2023-01-09T00:22:11.370Z,2.20
2023-01-09T00:24:41.823Z,1.77
2023-01-09T00:27:12.817Z,1.80
2023-01-09T00:29:45.941Z,1.90
2023-01-09T00:32:17.609Z,2.00
2023-01-09T00:34:48.990Z,1.90
2023-01-09T00:37:19.945Z,1.75
2023-01-09T00:39:50.225Z,2.20
2023-01-09T00:42:24.435Z,1.73
2023-01-09T00:45:01.284Z,1.77
2023-01-09T00:47:37.075Z,1.95
2023-01-09T00:50:12.458Z,2.33
2023-01-09T00:52:45.000Z,2.13
2023-01-09T00:55:16.548Z,2.13
2023-01-09T00:57:48.444Z,1.90
2023-01-09T01:00:20.572Z,2.08
2023-01-09T01:02:51.749Z,2.10
2023-01-09T01:05:40.417Z,1.90
2023-01-09T01:08:19.882Z,2.70
2023-01-09T01:10:51.067Z,2.08
2023-01-09T01:13:24.853Z,2.50
2023-01-09T01:15:55.286Z,1.98
2023-01-09T01:18:26.488Z,1.80
2023-01-09T01:20:57.200Z,2.30
2023-01-09T01:23:29.179Z,2.65
2023-01-09T01:25:59.343Z,2.17
2023-01-09T01:28:30.021Z,2.33
2023-01-09T01:31:00.432Z,2.47
2023-01-09T01:33:31.493Z,2.13
2023-01-09T01:36:10.230Z,2.30
2023-01-09T01:38:41.427Z,2.90
2023-01-09T01:41:12.114Z,2.10
2023-01-09T01:43:52.795Z,2.58
2023-01-09T01:46:23.505Z,2.35
2023-01-09T01:49:17.193Z,2.45
2023-01-09T01:51:51.756Z,2.75
2023-01-09T01:54:26.399Z,2.00
2023-01-09T01:57:02.656Z,2.33
2023-01-09T01:59:40.791Z,2.10
2023-01-09T02:02:12.434Z,2.28
2023-01-09T02:04:46.101Z,2.20
2023-01-09T02:07:16.282Z,2.50
2023-01-09T02:09:47.952Z,2.75
2023-01-09T02:12:27.569Z,2.33
2023-01-09T02:15:16.900Z,1.90
2023-01-09T02:18:02.834Z,2.45
2023-01-09T02:20:36.573Z,2.00
2023-01-09T02:23:43.582Z,2.30
2023-01-09T02:26:38.913Z,2.10
2023-01-09T02:29:33.092Z,2.30
2023-01-09T02:32:12.812Z,2.30
2023-01-09T02:34:59.677Z,2.33
2023-01-09T02:37:57.921Z,2.33
2023-01-09T02:41:11.071Z,3.03
2023-01-09T02:43:42.991Z,2.10
2023-01-09T02:46:24.244Z,2.40
2023-01-09T02:48:56.453Z,2.67
2023-01-09T02:51:49.361Z,2.65
2023-01-09T02:54:50.659Z,2.45
2023-01-09T02:57:42.436Z,2.55
2023-01-09T03:00:31.403Z,2.60
2023-01-09T03:03:13.556Z,2.95
2023-01-09T03:05:53.448Z,2.45
2023-01-09T03:08:27.000Z,2.20
2023-01-09T03:11:08.936Z,2.45
2023-01-09T03:13:48.637Z,2.47
2023-01-09T03:16:27.323Z,2.53
2023-01-09T03:19:00.706Z,2.47
2023-01-09T03:21:32.571Z,2.95
2023-01-09T03:24:03.975Z,2.28
2023-01-09T03:26:34.893Z,2.50
2023-01-09T03:29:05.022Z,2.30
2023-01-09T03:31:35.329Z,2.33
2023-01-09T03:34:05.746Z,1.75
2023-01-09T03:36:35.992Z,2.28
2023-01-09T03:39:06.672Z,2.03
2023-01-09T03:41:36.885Z,2.00
2023-01-09T03:44:07.374Z,2.13
2023-01-09T03:46:37.672Z,1.70
2023-01-09T03:49:08.062Z,1.67
2023-01-09T03:51:38.075Z,2.10
2023-01-09T03:54:11.461Z,2.25
2023-01-09T03:56:41.725Z,2.08
2023-01-09T03:59:12.089Z,1.88
2023-01-09T04:01:42.556Z,1.90
2023-01-09T04:04:13.164Z,2.50
2023-01-09T04:06:43.379Z,2.85
2023-01-09T04:09:13.787Z,2.28
2023-01-09T04:11:43.982Z,2.60
2023-01-09T04:14:14.312Z,2.20
2023-01-09T04:16:44.777Z,2.17
2023-01-09T04:19:15.191Z,2.00
2023-01-09T04:21:45.372Z,2.53
2023-01-09T04:24:15.877Z,2.60
2023-01-09T04:29:16.022Z,2.67
2023-01-09T04:31:46.401Z,2.58
2023-01-09T04:34:16.739Z,1.85
2023-01-09T04:36:46.969Z,2.22
2023-01-09T04:39:17.356Z,2.03
2023-01-09T04:41:50.684Z,2.28
2023-01-09T04:44:23.951Z,2.72
2023-01-09T04:46:54.937Z,3.05
2023-01-09T04:49:25.592Z,2.75
2023-01-09T04:51:56.197Z,3.10
2023-01-09T04:54:26.556Z,2.50
2023-01-09T04:56:56.933Z,2.42
2023-01-09T04:59:27.292Z,2.75
2023-01-09T05:01:59.594Z,2.90
2023-01-09T05:04:33.161Z,3.47
2023-01-09T05:07:03.894Z,2.80
2023-01-09T05:09:34.253Z,2.20
2023-01-09T05:12:04.646Z,2.00
2023-01-09T05:14:35.072Z,3.28
2023-01-09T05:17:05.368Z,2.75
2023-01-09T05:19:35.779Z,2.95
2023-01-09T05:22:06.071Z,2.20
2023-01-09T05:24:36.493Z,2.67
2023-01-09T05:27:06.704Z,2.47
2023-01-09T05:29:39.995Z,2.55
2023-01-09T05:32:10.365Z,2.78
2023-01-09T05:34:40.719Z,3.00
2023-01-09T05:37:11.003Z,3.05
2023-01-09T05:39:41.410Z,2.90
2023-01-09T05:42:11.590Z,2.95
2023-01-09T05:44:42.015Z,2.70
2023-01-09T05:47:12.202Z,2.35
2023-01-09T05:49:42.815Z,2.20
2023-01-09T05:52:13.105Z,3.13
2023-01-09T05:54:43.474Z,2.70
2023-01-09T05:57:13.677Z,2.72
2023-01-09T05:59:44.083Z,3.22
2023-01-09T06:02:14.368Z,2.65
2023-01-09T06:04:47.239Z,2.50
2023-01-09T06:07:20.465Z,2.58
2023-01-09T06:09:52.486Z,2.63
2023-01-09T06:12:22.735Z,2.40
2023-01-09T06:14:53.108Z,2.03
2023-01-09T06:17:24.013Z,2.30
2023-01-09T06:19:58.551Z,2.40
2023-01-09T06:22:28.883Z,2.20
2023-01-09T06:24:59.260Z,2.63
2023-01-09T06:27:29.515Z,2.60
2023-01-09T06:29:59.928Z,2.45
2023-01-09T06:32:30.483Z,2.28
2023-01-09T06:35:00.869Z,2.13
2023-01-09T06:37:31.161Z,2.40
2023-01-09T06:40:01.548Z,2.35
2023-01-09T06:42:31.743Z,2.08
2023-01-09T06:45:02.150Z,2.53
2023-01-09T06:47:32.441Z,2.55
2023-01-09T06:50:02.783Z,2.88
2023-01-09T06:52:33.062Z,2.80
2023-01-09T06:55:03.653Z,2.60
2023-01-09T07:00:03.930Z,3.05
2023-01-09T07:02:34.224Z,2.50
2023-01-09T07:05:05.894Z,2.80
2023-01-09T07:07:36.489Z,3.28
2023-01-09T07:10:07.400Z,3.67
2023-01-09T07:12:37.633Z,3.53
2023-01-09T07:15:08.578Z,2.45
2023-01-09T07:17:39.074Z,2.80
2023-01-09T07:20:11.605Z,3.45
2023-01-09T07:22:41.805Z,4.30
2023-01-09T07:25:12.202Z,3.80
2023-01-09T07:27:42.541Z,3.90
2023-01-09T07:30:13.533Z,4.22
2023-01-09T07:32:43.998Z,3.70
2023-01-09T07:35:14.482Z,3.47
2023-01-09T07:37:44.671Z,3.90
2023-01-09T07:40:15.621Z,3.42
2023-01-09T07:42:45.840Z,2.83
2023-01-09T07:45:16.327Z,2.75
2023-01-09T07:47:46.612Z,2.67
2023-01-09T07:50:16.981Z,3.20
2023-01-09T07:52:50.406Z,3.75
2023-01-09T07:55:20.865Z,3.97
2023-01-09T07:57:52.442Z,3.67
2023-01-09T08:00:23.259Z,3.28
2023-01-09T08:02:55.164Z,2.88
2023-01-09T08:05:25.735Z,3.80
2023-01-09T08:07:55.940Z,4.45
2023-01-09T08:10:26.365Z,3.70
2023-01-09T08:12:56.618Z,4.22
2023-01-09T08:15:26.954Z,4.95
2023-01-09T08:17:57.223Z,4.65
2023-01-09T08:20:28.628Z,4.57
2023-01-09T08:22:58.867Z,3.95
2023-01-09T08:25:29.302Z,4.90
2023-01-09T08:27:59.515Z,3.45
2023-01-09T08:30:30.926Z,4.00
2023-01-09T08:33:01.241Z,4.53
2023-01-09T08:35:31.806Z,4.57
2023-01-09T08:38:02.062Z,4.60
2023-01-09T08:40:32.511Z,4.90
2023-01-09T08:43:21.089Z,5.90
2023-01-09T08:46:11.021Z,5.32
2023-01-09T08:48:41.229Z,4.40
2023-01-09T08:51:12.568Z,4.88
2023-01-09T08:53:42.799Z,3.80
2023-01-09T08:56:13.136Z,4.18
2023-01-09T08:58:43.622Z,4.10
2023-01-09T09:01:14.050Z,3.80
2023-01-09T09:03:44.384Z,4.55
2023-01-09T09:06:14.762Z,4.57
2023-01-09T09:08:45.012Z,3.80
2023-01-09T09:11:15.438Z,3.08
2023-01-09T09:13:45.669Z,3.13
2023-01-09T09:16:16.092Z,3.42
2023-01-09T09:18:48.573Z,3.17
2023-01-09T09:21:19.601Z,2.38
2023-01-09T09:23:49.806Z,2.67
2023-01-09T09:26:20.140Z,3.28
2023-01-09T09:28:50.354Z,2.58
2023-01-09T09:31:20.823Z,2.35
2023-01-09T09:33:51.590Z,2.03
2023-01-09T09:36:21.989Z,2.22
2023-01-09T09:42:00.225Z,1.85
2023-01-09T09:45:06.263Z,1.85
2023-01-09T09:47:46.832Z,1.92
2023-01-09T09:50:38.244Z,1.55
2023-01-09T09:53:17.376Z,2.05
2023-01-09T09:55:51.182Z,1.80
2023-01-09T09:58:30.923Z,1.92
2023-01-09T10:01:03.174Z,1.88
2023-01-09T10:03:48.870Z,1.90
2023-01-09T10:06:52.565Z,1.90
2023-01-09T10:09:50.579Z,2.50
2023-01-09T10:12:46.553Z,2.20
2023-01-09T10:15:40.866Z,2.67
2023-01-09T10:18:34.868Z,2.00
2023-01-09T10:21:35.533Z,2.17
2023-01-09T10:24:45.949Z,2.30
2023-01-09T10:27:35.403Z,2.60
2023-01-09T10:30:25.518Z,2.17
2023-01-09T10:33:17.508Z,2.08
2023-01-09T10:36:41.001Z,1.95
2023-01-09T10:39:20.526Z,2.25
2023-01-09T10:42:01.969Z,2.00
2023-01-09T10:44:39.926Z,2.00
2023-01-09T10:47:29.395Z,2.17
2023-01-09T10:50:00.470Z,1.98
2023-01-09T10:52:43.325Z,1.85
2023-01-09T10:55:40.954Z,2.67
2023-01-09T10:58:23.038Z,2.45
2023-01-09T11:00:53.258Z,2.47
2023-01-09T11:03:26.421Z,2.50
2023-01-09T11:06:01.847Z,2.30
2023-01-09T11:08:41.388Z,2.78
2023-01-09T11:11:32.635Z,2.53
2023-01-09T11:14:16.143Z,2.97
2023-01-09T11:19:28.342Z,3.42
2023-01-09T11:22:30.098Z,3.33
2023-01-09T11:25:06.732Z,2.50
2023-01-09T11:30:17.279Z,2.72
2023-01-09T11:32:48.654Z,2.80
2023-01-09T11:35:35.030Z,2.97
2023-01-09T11:38:09.347Z,3.10
2023-01-09T11:40:51.165Z,3.30
2023-01-09T11:43:31.567Z,3.20
2023-01-09T11:46:08.196Z,3.33
2023-01-09T11:49:03.609Z,3.35
2023-01-09T11:51:36.935Z,3.47
2023-01-09T11:54:09.767Z,3.78
2023-01-09T11:56:43.214Z,4.00
2023-01-09T11:59:21.277Z,3.45
2023-01-09T12:02:18.329Z,3.40
2023-01-09T12:05:36.509Z,3.45
2023-01-09T12:08:30.068Z,3.58
2023-01-09T12:11:09.184Z,4.05
2023-01-09T12:14:13.560Z,4.10
2023-01-09T12:17:20.450Z,4.13
2023-01-09T12:20:10.512Z,4.00
2023-01-09T12:22:52.685Z,3.60
2023-01-09T12:25:59.288Z,4.07
2023-01-09T12:28:49.013Z,3.50
2023-01-09T12:31:42.839Z,3.40
2023-01-09T12:34:45.999Z,3.38
2023-01-09T12:37:54.591Z,3.38
2023-01-09T12:40:53.339Z,3.47
2023-01-09T12:43:30.236Z,3.00
2023-01-09T12:46:17.667Z,3.30
2023-01-09T12:48:52.362Z,3.80
2023-01-09T12:51:43.661Z,3.40
2023-01-09T12:54:43.996Z,3.80
2023-01-09T12:57:30.092Z,3.72
2023-01-09T13:00:21.948Z,3.72
2023-01-09T13:03:11.376Z,3.55
2023-01-09T13:05:51.779Z,3.65
2023-01-09T13:08:58.986Z,3.88
2023-01-09T13:11:39.226Z,3.33
2023-01-09T13:14:19.485Z,3.85
2023-01-09T13:16:54.801Z,4.28
2023-01-09T13:19:38.603Z,4.00
2023-01-09T13:22:14.326Z,4.25
2023-01-09T13:25:29.158Z,3.72
2023-01-09T13:28:07.903Z,3.92
2023-01-09T13:31:09.912Z,4.68
2023-01-09T13:33:47.647Z,4.70
2023-01-09T13:36:29.258Z,4.00
2023-01-09T13:39:01.575Z,4.38
2023-01-09T13:41:51.989Z,4.07
2023-01-09T13:44:31.005Z,4.10
2023-01-09T13:47:04.568Z,3.65
2023-01-09T13:49:54.786Z,3.78
2023-01-09T13:52:39.727Z,4.00
2023-01-09T13:55:16.284Z,4.10
2023-01-09T13:58:05.076Z,3.65
2023-01-09T14:00:38.450Z,3.35
2023-01-09T14:03:22.767Z,3.22
2023-01-09T14:05:53.360Z,4.03
2023-01-09T14:08:26.094Z,4.18
2023-01-09T14:11:02.397Z,3.55
2023-01-09T14:13:40.247Z,4.07
2023-01-09T14:16:17.941Z,3.90
2023-01-09T14:18:59.366Z,3.55
2023-01-09T14:21:46.565Z,3.95
2023-01-09T14:24:30.389Z,3.50
2023-01-09T14:27:03.394Z,4.45
2023-01-09T14:29:33.491Z,3.50
2023-01-09T14:32:26.322Z,3.65
2023-01-09T14:35:05.383Z,3.50
2023-01-09T14:37:38.866Z,4.07
2023-01-09T14:40:32.151Z,4.20
2023-01-09T14:43:13.696Z,4.03
2023-01-09T14:45:49.940Z,3.78
2023-01-09T14:48:20.846Z,3.58
2023-01-09T14:51:00.001Z,3.58
2023-01-09T14:53:36.033Z,3.95
2023-01-09T14:56:09.491Z,3.58
2023-01-09T14:58:40.501Z,3.22
2023-01-09T15:01:19.885Z,4.05
2023-01-09T15:04:00.361Z,3.90
2023-01-09T15:06:34.054Z,4.13
2023-01-09T15:09:47.573Z,3.85
2023-01-09T15:12:25.473Z,3.47
2023-01-09T15:15:00.251Z,3.70
2023-01-09T15:17:37.214Z,3.50
2023-01-09T15:20:09.635Z,3.65
2023-01-09T15:22:40.068Z,3.30
2023-01-09T15:25:27.482Z,3.60
2023-01-09T15:28:22.100Z,3.30
2023-01-09T15:31:13.800Z,3.55
2023-01-09T15:33:46.806Z,3.28
2023-01-09T15:36:24.475Z,2.88
2023-01-09T15:38:55.715Z,2.83
2023-01-09T15:41:47.794Z,3.58
2023-01-09T15:44:28.020Z,3.00
2023-01-09T15:47:01.487Z,2.65
2023-01-09T15:49:33.288Z,2.67
2023-01-09T15:52:04.880Z,2.58
2023-01-09T15:54:36.341Z,2.60
2023-01-09T15:57:28.701Z,3.30
2023-01-09T16:00:19.336Z,2.50
2023-01-09T16:03:08.452Z,2.70
2023-01-09T16:05:48.555Z,3.17
2023-01-09T16:08:31.598Z,2.83
2023-01-09T16:11:10.577Z,2.50
2023-01-09T16:13:47.013Z,2.30
2023-01-09T16:18:57.405Z,2.63
2023-01-09T16:21:38.936Z,2.67
2023-01-09T16:24:18.896Z,2.28
2023-01-09T16:26:49.064Z,2.70
2023-01-09T16:29:39.959Z,2.60
2023-01-09T16:32:24.155Z,2.47
2023-01-09T16:34:56.590Z,2.78
2023-01-09T16:37:28.353Z,2.78
2023-01-09T16:40:09.937Z,2.55
2023-01-09T16:42:58.694Z,2.42
2023-01-09T16:45:34.463Z,2.55
2023-01-09T16:48:16.278Z,2.80
2023-01-09T16:50:46.651Z,2.85
2023-01-09T16:53:25.225Z,3.10
2023-01-09T16:55:56.145Z,3.20
2023-01-09T16:58:32.927Z,3.17
2023-01-09T17:01:03.468Z,3.17
2023-01-09T17:03:34.301Z,3.00
2023-01-09T17:06:07.119Z,2.80
2023-01-09T17:08:39.065Z,3.33
2023-01-09T17:11:24.657Z,2.65
2023-01-09T17:13:55.134Z,2.70
2023-01-09T17:16:25.863Z,2.60
2023-01-09T17:18:56.710Z,2.83
2023-01-09T17:21:32.279Z,2.72
2023-01-09T17:24:20.996Z,2.40
2023-01-09T17:27:11.687Z,2.85
2023-01-09T17:29:42.181Z,2.50
2023-01-09T17:32:17.800Z,2.40
2023-01-09T17:37:19.653Z,2.60
2023-01-09T17:39:50.227Z,2.33
2023-01-09T17:42:20.648Z,2.70
2023-01-09T17:44:51.172Z,2.50
2023-01-09T17:47:21.385Z,2.47
2023-01-09T17:49:51.865Z,3.15
2023-01-09T17:52:23.221Z,2.70
2023-01-09T17:54:53.688Z,2.13
2023-01-09T17:57:24.240Z,2.28
2023-01-09T17:59:54.643Z,2.45
2023-01-09T18:02:25.268Z,2.50
2023-01-09T18:04:55.719Z,2.35
2023-01-09T18:07:27.048Z,2.60
2023-01-09T18:09:57.662Z,2.33
2023-01-09T18:12:28.423Z,2.80
2023-01-09T18:14:58.888Z,2.45
2023-01-09T18:18:05.733Z,2.45
2023-01-09T18:20:36.074Z,2.50
2023-01-09T18:23:06.151Z,2.17
2023-01-09T18:25:36.857Z,2.40
2023-01-09T18:28:07.223Z,2.30
2023-01-09T18:30:38.132Z,3.15
2023-01-09T18:33:55.884Z,2.60
2023-01-09T18:36:31.354Z,2.55
2023-01-09T18:39:04.110Z,2.55
2023-01-09T18:41:34.694Z,2.10
2023-01-09T18:44:05.096Z,2.08
2023-01-09T18:46:35.662Z,2.50
2023-01-09T18:49:06.955Z,2.63
2023-01-09T18:51:38.011Z,2.67
2023-01-09T18:54:12.921Z,2.95
2023-01-09T18:56:43.443Z,3.25
2023-01-09T18:59:13.897Z,2.88
2023-01-09T19:01:44.541Z,2.15
2023-01-09T19:04:14.909Z,2.40
2023-01-09T19:06:45.363Z,2.63
2023-01-09T19:09:15.909Z,2.67
2023-01-09T19:11:47.218Z,1.73
2023-01-09T19:14:58.585Z,2.20
2023-01-09T19:17:28.992Z,2.10
2023-01-09T19:19:59.358Z,2.45
2023-01-09T19:22:30.420Z,3.58
2023-01-09T19:25:00.882Z,2.72
2023-01-09T19:27:40.043Z,4.03
2023-01-09T19:30:11.696Z,2.88
2023-01-09T19:32:42.571Z,2.00
2023-01-09T19:35:12.987Z,2.00
2023-01-09T19:37:43.304Z,2.25
2023-01-09T19:40:14.022Z,2.30
2023-01-09T19:42:44.420Z,2.25
2023-01-09T19:45:15.007Z,2.70
2023-01-09T19:47:46.533Z,3.53
2023-01-09T19:50:18.908Z,2.90
2023-01-09T19:52:49.156Z,2.17
2023-01-09T19:55:19.439Z,2.65
2023-01-09T19:57:49.741Z,1.98
2023-01-09T20:00:20.304Z,2.20
2023-01-09T20:02:51.628Z,2.42
2023-01-09T20:05:21.986Z,6.68
2023-01-09T20:07:59.038Z,2.55
2023-01-09T20:10:29.255Z,2.15
2023-01-09T20:12:59.724Z,1.67
2023-01-09T20:15:29.940Z,1.80
2023-01-09T20:18:00.900Z,2.28
2023-01-09T20:20:31.097Z,2.45
2023-01-09T20:23:01.466Z,2.63
2023-01-09T20:25:31.851Z,2.20
2023-01-09T20:28:02.180Z,2.20
2023-01-09T20:30:32.308Z,2.17
2023-01-09T20:33:02.564Z,2.17
2023-01-09T20:35:33.408Z,2.17
2023-01-09T20:38:04.864Z,2.30
2023-01-09T20:40:37.577Z,2.20
2023-01-09T20:43:09.704Z,2.22
2023-01-09T20:45:41.285Z,2.13
2023-01-09T20:48:12.321Z,2.78
2023-01-09T20:50:43.108Z,2.53
2023-01-09T20:53:13.518Z,2.38
2023-01-09T20:55:43.720Z,2.25
2023-01-09T20:58:14.193Z,2.40
2023-01-09T21:00:44.554Z,2.30
2023-01-09T21:03:17.797Z,2.08
2023-01-09T21:05:48.126Z,2.67
2023-01-09T21:08:19.119Z,2.28
2023-01-09T21:10:49.454Z,2.13
2023-01-09T21:13:19.891Z,2.20
2023-01-09T21:15:50.231Z,2.22
2023-01-09T21:18:20.732Z,1.70
2023-01-09T21:20:51.254Z,2.05
2023-01-09T21:23:24.652Z,2.30
2023-01-09T21:25:54.956Z,2.33
2023-01-09T21:28:26.374Z,1.90
2023-01-09T21:30:56.775Z,2.40
2023-01-09T21:33:27.216Z,2.42
2023-01-09T21:35:59.818Z,1.80
2023-01-09T21:38:30.201Z,3.00
2023-01-09T21:41:20.264Z,2.47
2023-01-09T21:44:09.180Z,2.75
2023-01-09T21:46:57.000Z,2.22
2023-01-09T21:49:30.815Z,3.08
2023-01-09T21:52:01.117Z,3.08
2023-01-09T21:54:32.450Z,2.80
2023-01-09T21:57:04.446Z,2.90
2023-01-09T21:59:35.100Z,2.70
2023-01-09T22:02:05.569Z,3.30
2023-01-09T22:04:36.305Z,3.60
2023-01-09T22:07:06.695Z,3.20
2023-01-09T22:09:38.618Z,3.55
2023-01-09T22:12:10.352Z,2.90
2023-01-09T22:14:41.252Z,2.80
2023-01-09T22:17:12.437Z,3.45
2023-01-09T22:19:42.832Z,2.95
2023-01-09T22:22:13.015Z,3.50
2023-01-09T22:24:43.569Z,2.80
2023-01-09T22:27:13.788Z,2.92
2023-01-09T22:29:44.134Z,3.47
2023-01-09T22:32:14.554Z,3.55
2023-01-09T22:34:44.960Z,3.30
2023-01-09T22:37:15.363Z,3.22
2023-01-09T22:39:45.730Z,3.78
2023-01-09T22:42:18.128Z,3.50
2023-01-09T22:44:48.621Z,3.58
2023-01-09T22:47:18.996Z,3.10
2023-01-09T22:49:53.476Z,3.20
2023-01-09T22:52:24.984Z,2.90
2023-01-09T22:54:55.372Z,3.10
2023-01-09T22:57:25.592Z,3.22
2023-01-09T22:59:55.924Z,3.63
2023-01-09T23:02:26.508Z,3.50
2023-01-09T23:04:59.483Z,2.88
2023-01-09T23:07:30.053Z,2.80
2023-01-09T23:10:03.061Z,2.80
2023-01-09T23:12:34.197Z,3.30
2023-01-09T23:15:04.603Z,4.20
2023-01-09T23:17:35.008Z,3.35
2023-01-09T23:20:05.809Z,3.25
2023-01-09T23:22:36.027Z,3.60
2023-01-09T23:25:06.800Z,3.80
2023-01-09T23:27:37.142Z,3.60
2023-01-09T23:30:08.159Z,4.32
2023-01-09T23:32:41.456Z,3.40
2023-01-09T23:35:12.149Z,4.50
2023-01-09T23:37:42.476Z,4.05
2023-01-09T23:40:13.646Z,4.80
2023-01-09T23:43:02.126Z,4.78
2023-01-09T23:45:32.845Z,4.93
2023-01-09T23:48:03.252Z,5.13
2023-01-09T23:50:34.224Z,5.03
2023-01-09T23:53:04.890Z,5.10
2023-01-09T23:55:38.280Z,4.95
2023-01-09T23:58:08.769Z,5.03
